VAM | Vabird-VBD

Virtual Vabird! Aerolínea Virtual de habla hispana, desde 2011




 INFORMACIÓN METAR y TAF
METAR FOR BIKF
ADDS - METARS form results

(2143 UTC 21 January 2021)
Data provider http://aviationweather.gov/metar/data/
 
METAR text: BIKF 212130Z 02024KT 9999 SCT025 BKN160 M01/M06 Q1011
Conditions at: BIKF (KEFLAVIK (CIV/MI, IS) observed 2130 UTC 21 January 2021
Temperature: -1.0°C (30°F)
Dewpoint: -6.0°C (21°F) [RH = 69%]
Pressure (altimeter): 29.85 inches Hg (1011.0 mb)
Winds: from the NNE (20 degrees) at 28 MPH (24 knots; 12.3 m/s)
Visibility: 6 or more miles (10+ km)
Ceiling: 16000 feet AGL
Clouds: scattered clouds at 2500 feet AGL
broken clouds at 16000 feet AGL
Weather: no significant weather observed at this time

METAR text: BIKF 212100Z 01023KT 9999 FEW028 SCT170 M01/M06 Q1010
Conditions at: BIKF (KEFLAVIK (CIV/MI, IS) observed 2100 UTC 21 January 2021
Temperature: -1.0°C (30°F)
Dewpoint: -6.0°C (21°F) [RH = 69%]
Pressure (altimeter): 29.82 inches Hg (1010.0 mb)
Winds: from the N (10 degrees) at 26 MPH (23 knots; 11.8 m/s)
Visibility: 6 or more miles (10+ km)
Ceiling: at least 12,000 feet AGL
Clouds: few clouds at 2800 feet AGL
scattered clouds at 17000 feet AGL
Weather: no significant weather observed at this time

Forecast for: BIKF (KEFLAVIK (CIV/MI, IS)
Text: TAF BIKF 211921Z 2121/2221 03026G38KT 9999 SCT020 TXM01/2121Z TNM03/2204Z
Forecast period: 2100 UTC 21 January 2021 to 2100 UTC 22 January 2021
Forecast type: FROM: standard forecast or significant change
Winds: from the NNE (30 degrees) at 30 MPH (26 knots; 13.4 m/s)
gusting to 44 MPH (38 knots; 19.5 m/s)
Visibility: 6 or more miles (10+ km)
Ceiling: at least 12,000 feet AGL
Clouds: scattered clouds at 2000 feet AGL
Weather: no significant weather forecast for this period
Text: PROB30
Forecast period: 0500 to 2100 UTC 22 January 2021
Forecast type: TEMPORARY: The following changes expected for less than half the time period
Visibility: 3 miles (5 km)
Ceiling: 1400 feet AGL
Clouds: broken clouds at 1400 feet AGL
Weather: -SHSN  (light snow showers)

 MAPA DE AEROPUERTO

 INFORMACIÓN DE PISTA